createdAt,value
2022-12-19T00:00:29.847Z,1.67
2022-12-19T00:02:57.690Z,1.72
2022-12-19T00:05:25.511Z,1.71
2022-12-19T00:07:53.668Z,1.71
2022-12-19T00:10:21.389Z,1.74
2022-12-19T00:12:49.160Z,1.71
2022-12-19T00:15:17.086Z,1.70
2022-12-19T00:17:46.208Z,1.66
2022-12-19T00:20:14.695Z,1.76
2022-12-19T00:22:46.547Z,1.80
2022-12-19T00:25:14.315Z,1.80
2022-12-19T00:27:42.241Z,1.85
2022-12-19T00:30:11.528Z,1.87
2022-12-19T00:32:39.670Z,1.87
2022-12-19T00:35:09.506Z,1.81
2022-12-19T00:37:38.323Z,1.85
2022-12-19T00:40:13.365Z,1.87
2022-12-19T00:42:41.085Z,1.80
2022-12-19T00:45:10.348Z,1.91
2022-12-19T00:47:38.054Z,1.87
2022-12-19T00:50:06.319Z,1.91
2022-12-19T00:52:35.446Z,1.89
2022-12-19T00:55:03.676Z,1.89
2022-12-19T00:57:34.522Z,1.88
2022-12-19T01:00:02.728Z,1.89
2022-12-19T01:02:30.742Z,1.83
2022-12-19T01:04:58.992Z,1.94
2022-12-19T01:07:26.735Z,1.99
2022-12-19T01:09:55.840Z,1.84
2022-12-19T01:12:41.296Z,2.00
2022-12-19T01:15:09.610Z,1.96
2022-12-19T01:17:44.647Z,2.03
2022-12-19T01:20:14.145Z,2.02
2022-12-19T01:22:41.861Z,2.00
2022-12-19T01:25:11.107Z,1.91
2022-12-19T01:27:40.256Z,2.04
2022-12-19T01:30:09.293Z,2.06
2022-12-19T01:32:37.455Z,2.08
2022-12-19T01:35:05.927Z,2.08
2022-12-19T01:37:37.691Z,2.10
2022-12-19T01:40:06.381Z,2.07
2022-12-19T01:42:38.120Z,2.06
2022-12-19T01:45:33.928Z,2.12
2022-12-19T01:48:14.638Z,2.15
2022-12-19T01:51:00.541Z,2.20
2022-12-19T01:53:43.564Z,2.24
2022-12-19T01:56:18.756Z,2.17
2022-12-19T01:58:50.636Z,2.23
2022-12-19T02:01:25.648Z,2.23
2022-12-19T02:03:55.094Z,2.25
2022-12-19T02:06:23.522Z,2.28
2022-12-19T02:08:52.230Z,2.22
2022-12-19T02:11:20.569Z,2.32
2022-12-19T02:13:49.765Z,2.24
2022-12-19T02:16:32.168Z,2.37
2022-12-19T02:19:11.109Z,2.38
2022-12-19T02:21:55.699Z,2.38
2022-12-19T02:25:14.883Z,2.35
2022-12-19T02:28:13.608Z,2.41
2022-12-19T02:30:53.160Z,2.41
2022-12-19T02:33:30.107Z,2.42
2022-12-19T02:36:06.221Z,2.42
2022-12-19T02:38:41.561Z,2.40
2022-12-19T02:41:14.268Z,2.41
2022-12-19T02:43:49.996Z,2.43
2022-12-19T02:46:30.367Z,2.49
2022-12-19T02:48:59.118Z,2.54
2022-12-19T02:51:26.934Z,2.56
2022-12-19T02:53:54.780Z,2.57
2022-12-19T02:56:33.612Z,2.59
2022-12-19T02:59:30.638Z,2.53
2022-12-19T03:02:10.052Z,2.55
2022-12-19T03:04:48.823Z,2.57
2022-12-19T03:07:27.857Z,2.51
2022-12-19T03:10:06.415Z,2.57
2022-12-19T03:12:40.010Z,2.57
2022-12-19T03:15:11.875Z,2.56
2022-12-19T03:17:41.246Z,2.46
2022-12-19T03:20:15.377Z,2.38
2022-12-19T03:22:43.155Z,2.60
2022-12-19T03:25:10.928Z,2.62
2022-12-19T03:27:40.708Z,2.58
2022-12-19T03:30:12.942Z,2.63
2022-12-19T03:32:44.661Z,2.63
2022-12-19T03:35:18.015Z,2.62
2022-12-19T03:37:51.132Z,2.65
2022-12-19T03:40:22.542Z,2.64
2022-12-19T03:43:11.231Z,2.63
2022-12-19T03:45:46.185Z,2.62
2022-12-19T03:48:18.975Z,2.61
2022-12-19T03:50:54.454Z,2.63
2022-12-19T03:53:35.130Z,2.63
2022-12-19T03:56:11.964Z,2.62
2022-12-19T03:58:44.660Z,2.68
2022-12-19T04:01:12.788Z,2.69
2022-12-19T04:03:42.247Z,2.71
2022-12-19T04:06:10.966Z,2.72
2022-12-19T04:08:39.246Z,2.74
2022-12-19T04:11:15.255Z,2.69
2022-12-19T04:13:49.998Z,2.72
2022-12-19T04:16:24.944Z,2.74
2022-12-19T04:18:59.208Z,2.71
2022-12-19T04:21:32.988Z,2.81
2022-12-19T04:24:07.211Z,2.83
2022-12-19T04:26:37.613Z,2.82
2022-12-19T04:29:07.442Z,2.81
2022-12-19T04:31:36.084Z,2.82
2022-12-19T04:34:05.305Z,2.83
2022-12-19T04:36:33.188Z,2.71
2022-12-19T04:39:00.995Z,2.88
2022-12-19T04:41:28.706Z,2.88
2022-12-19T04:43:56.465Z,2.91
2022-12-19T04:46:24.200Z,2.82
2022-12-19T04:48:52.044Z,2.93
2022-12-19T04:51:21.781Z,2.94
2022-12-19T04:53:49.557Z,2.83
2022-12-19T04:56:17.475Z,2.99
2022-12-19T04:58:45.237Z,2.99
2022-12-19T05:01:14.329Z,3.01
2022-12-19T05:03:42.192Z,3.00
2022-12-19T05:06:11.610Z,3.00
2022-12-19T05:08:42.483Z,3.02
2022-12-19T05:11:17.375Z,2.95
2022-12-19T05:13:47.113Z,3.00
2022-12-19T05:16:15.911Z,2.97
2022-12-19T05:18:44.164Z,2.98
2022-12-19T05:21:12.349Z,2.93
2022-12-19T05:23:41.506Z,2.97
2022-12-19T05:26:09.393Z,3.04
2022-12-19T05:28:37.106Z,3.05
2022-12-19T05:31:07.052Z,3.07
2022-12-19T05:33:35.055Z,3.10
2022-12-19T05:36:03.014Z,3.11
2022-12-19T05:38:30.842Z,3.09
2022-12-19T05:40:59.976Z,3.13
2022-12-19T05:43:28.101Z,2.92
2022-12-19T05:45:55.765Z,3.17
2022-12-19T05:48:23.512Z,3.20
2022-12-19T05:50:51.735Z,3.12
2022-12-19T05:53:24.559Z,3.19
2022-12-19T05:55:53.711Z,3.25
2022-12-19T05:58:22.915Z,3.26
2022-12-19T06:00:50.692Z,3.31
2022-12-19T06:03:18.529Z,3.30
2022-12-19T06:05:46.324Z,3.31
2022-12-19T06:08:14.056Z,3.37
2022-12-19T06:10:41.789Z,3.37
2022-12-19T06:13:09.497Z,3.39
2022-12-19T06:15:38.586Z,3.36
2022-12-19T06:18:06.446Z,3.42
2022-12-19T06:20:34.189Z,3.45
2022-12-19T06:23:02.177Z,3.49
2022-12-19T06:25:30.017Z,3.41
2022-12-19T06:27:57.748Z,3.51
2022-12-19T06:30:25.522Z,3.54
2022-12-19T06:32:54.669Z,3.59
2022-12-19T06:35:22.604Z,3.58
2022-12-19T06:37:50.738Z,3.59
2022-12-19T06:40:38.883Z,3.64
2022-12-19T06:43:05.620Z,3.63
2022-12-19T06:45:33.517Z,3.67
2022-12-19T06:48:02.671Z,3.68
2022-12-19T06:50:30.441Z,3.67
2022-12-19T06:52:59.994Z,3.67
2022-12-19T06:55:28.889Z,3.66
2022-12-19T06:57:57.075Z,3.64
2022-12-19T07:00:25.332Z,3.68
2022-12-19T07:02:53.416Z,3.70
2022-12-19T07:05:23.125Z,3.65
2022-12-19T07:07:51.080Z,3.70
2022-12-19T07:10:19.219Z,3.73
2022-12-19T07:12:46.975Z,3.73
2022-12-19T07:15:14.891Z,3.67
2022-12-19T07:17:47.611Z,3.77
2022-12-19T07:20:16.888Z,3.77
2022-12-19T07:22:46.298Z,3.75
2022-12-19T07:25:15.542Z,3.79
2022-12-19T07:27:43.278Z,3.75
2022-12-19T07:30:12.812Z,3.80
2022-12-19T07:32:40.621Z,3.78
2022-12-19T07:35:09.125Z,3.76
2022-12-19T07:37:36.868Z,3.84
2022-12-19T07:40:07.333Z,3.87
2022-12-19T07:42:35.231Z,3.88
2022-12-19T07:45:03.173Z,3.74
2022-12-19T07:47:30.920Z,3.74
2022-12-19T07:49:58.714Z,3.93
2022-12-19T07:52:26.720Z,3.91
2022-12-19T07:54:54.732Z,3.96
2022-12-19T07:57:23.833Z,3.95
2022-12-19T07:59:51.571Z,3.99
2022-12-19T08:02:19.716Z,4.02
2022-12-19T08:04:47.506Z,4.03
2022-12-19T08:07:15.254Z,4.03
2022-12-19T08:09:43.042Z,4.04
2022-12-19T08:12:11.347Z,4.08
2022-12-19T08:14:40.345Z,4.08
2022-12-19T08:17:20.082Z,4.14
2022-12-19T08:19:48.582Z,4.15
2022-12-19T08:22:16.347Z,4.20
2022-12-19T08:24:44.078Z,4.13
2022-12-19T08:27:11.972Z,4.31
2022-12-19T08:29:41.100Z,4.31
2022-12-19T08:32:08.992Z,4.33
2022-12-19T08:34:36.699Z,4.37
2022-12-19T08:37:04.477Z,4.40
2022-12-19T08:39:32.215Z,4.39
2022-12-19T08:42:00.787Z,4.43
2022-12-19T08:44:28.531Z,4.41
2022-12-19T08:46:57.598Z,4.43
2022-12-19T08:49:25.321Z,4.44
2022-12-19T08:51:53.115Z,4.44
2022-12-19T08:54:20.972Z,4.45
2022-12-19T08:56:48.718Z,4.45
2022-12-19T08:59:26.004Z,4.48
2022-12-19T09:02:01.704Z,4.46
2022-12-19T09:05:03.677Z,4.45
2022-12-19T09:07:18.679Z,4.52
2022-12-19T09:09:46.516Z,4.54
2022-12-19T09:12:16.146Z,4.56
2022-12-19T09:14:45.083Z,4.55
2022-12-19T09:17:14.177Z,4.56
2022-12-19T09:19:44.096Z,4.57
2022-12-19T09:22:16.322Z,4.57
2022-12-19T09:24:44.214Z,4.59
2022-12-19T09:27:12.007Z,4.62
2022-12-19T09:29:39.925Z,4.64
2022-12-19T09:32:07.687Z,4.64
2022-12-19T09:34:39.007Z,4.69
2022-12-19T09:37:08.410Z,4.67
2022-12-19T09:39:37.040Z,4.69
2022-12-19T09:42:30.304Z,4.73
2022-12-19T09:45:14.658Z,4.66
2022-12-19T09:47:49.955Z,4.68
2022-12-19T09:50:30.504Z,4.73
2022-12-19T09:53:03.811Z,4.79
2022-12-19T09:55:35.463Z,4.80
2022-12-19T09:58:08.480Z,4.78
2022-12-19T10:00:41.468Z,4.84
2022-12-19T10:03:17.357Z,4.86
2022-12-19T10:07:06.148Z,4.85
2022-12-19T10:09:07.447Z,4.94
2022-12-19T10:12:44.932Z,4.95
2022-12-19T10:14:58.972Z,4.91
2022-12-19T10:17:38.858Z,4.92
2022-12-19T10:20:19.256Z,4.82
2022-12-19T10:23:00.759Z,4.89
2022-12-19T10:25:44.268Z,4.90
2022-12-19T10:28:32.812Z,4.90
2022-12-19T10:31:21.100Z,4.86
2022-12-19T10:33:58.257Z,4.87
2022-12-19T10:36:48.675Z,4.76
2022-12-19T10:39:28.435Z,4.86
2022-12-19T10:42:00.419Z,4.86
2022-12-19T10:44:31.656Z,4.83
2022-12-19T10:46:59.468Z,4.84
2022-12-19T10:49:29.468Z,4.84
2022-12-19T10:52:03.515Z,4.84
2022-12-19T10:54:43.919Z,4.87
2022-12-19T10:57:25.731Z,4.87
2022-12-19T10:59:58.757Z,4.88
2022-12-19T11:02:42.395Z,4.90
2022-12-19T11:05:25.398Z,4.92
2022-12-19T11:08:05.102Z,4.91
2022-12-19T11:11:38.019Z,4.92
2022-12-19T11:18:44.256Z,4.92
2022-12-19T11:20:42.860Z,4.94
2022-12-19T11:23:44.589Z,4.90
2022-12-19T11:29:46.775Z,4.87
2022-12-19T11:30:05.575Z,5.01
2022-12-19T11:30:38.987Z,4.89
2022-12-19T11:34:05.776Z,4.94
2022-12-19T11:36:38.719Z,5.13
2022-12-19T11:39:13.459Z,5.14
2022-12-19T11:41:46.188Z,5.15
2022-12-19T11:44:27.316Z,5.17
2022-12-19T11:47:00.354Z,5.19
2022-12-19T11:49:33.239Z,5.19
2022-12-19T11:52:09.101Z,5.01
2022-12-19T11:54:54.764Z,5.16
2022-12-19T11:57:22.571Z,5.21
2022-12-19T11:59:56.456Z,5.22
2022-12-19T12:02:47.500Z,5.23
2022-12-19T12:05:45.704Z,5.28
2022-12-19T12:11:40.073Z,5.28
2022-12-19T12:20:53.806Z,5.27
2022-12-19T12:24:40.348Z,5.21
2022-12-19T12:31:10.965Z,5.30
2022-12-19T12:31:11.914Z,5.19
2022-12-19T12:31:26.566Z,5.29
2022-12-19T12:31:48.724Z,5.28
2022-12-19T12:31:58.265Z,5.29
2022-12-19T12:35:51.821Z,5.30
2022-12-19T12:38:42.983Z,5.16
2022-12-19T12:41:45.048Z,5.37
2022-12-19T12:44:13.526Z,5.42
2022-12-19T12:46:48.922Z,5.43
2022-12-19T12:49:35.750Z,5.48
2022-12-19T12:52:07.797Z,5.44
2022-12-19T12:54:39.114Z,5.50
2022-12-19T12:57:07.043Z,5.50
2022-12-19T12:59:34.960Z,5.51
2022-12-19T13:02:15.740Z,5.52
2022-12-19T13:04:55.687Z,5.44
2022-12-19T13:07:42.703Z,5.55
2022-12-19T13:10:22.218Z,5.55
2022-12-19T13:13:00.447Z,5.60
2022-12-19T13:15:49.031Z,5.62
2022-12-19T13:18:32.926Z,5.60
2022-12-19T13:21:02.651Z,5.66
2022-12-19T13:24:21.093Z,5.69
2022-12-19T13:26:53.426Z,5.51
2022-12-19T13:29:33.524Z,5.71
2022-12-19T13:32:17.911Z,5.73
2022-12-19T13:35:07.293Z,5.68
2022-12-19T13:39:55.542Z,5.68
2022-12-19T13:40:51.668Z,5.61
2022-12-19T13:43:42.600Z,5.65
2022-12-19T13:46:24.515Z,5.65
2022-12-19T13:48:55.083Z,5.68
2022-12-19T13:51:23.308Z,5.63
2022-12-19T13:53:59.627Z,5.68
2022-12-19T13:56:31.919Z,5.53
2022-12-19T13:59:04.413Z,5.64
2022-12-19T14:01:34.879Z,5.63
2022-12-19T14:04:08.435Z,5.64
2022-12-19T14:06:43.177Z,5.43
2022-12-19T14:10:07.576Z,5.66
2022-12-19T14:13:48.012Z,5.68
2022-12-19T14:15:33.502Z,5.69
2022-12-19T14:18:29.988Z,5.72
2022-12-19T14:22:06.736Z,5.75
2022-12-19T14:23:43.985Z,5.72
2022-12-19T14:28:21.386Z,5.54
2022-12-19T14:29:10.494Z,5.77
2022-12-19T14:31:58.254Z,5.76
2022-12-19T14:35:05.032Z,5.76
2022-12-19T14:39:20.147Z,5.75
2022-12-19T14:40:24.974Z,5.79
2022-12-19T14:43:57.138Z,5.78
2022-12-19T14:52:44.955Z,5.71
2022-12-19T14:54:21.093Z,5.78
2022-12-19T14:54:34.716Z,5.76
2022-12-19T14:56:12.902Z,5.78
2022-12-19T14:58:55.261Z,5.79
2022-12-19T15:01:25.226Z,5.76
2022-12-19T15:04:52.576Z,5.76
2022-12-19T15:07:08.330Z,5.78
2022-12-19T15:10:57.842Z,5.69
2022-12-19T15:14:46.966Z,5.73
2022-12-19T15:15:46.081Z,5.83
2022-12-19T15:18:24.284Z,5.85
2022-12-19T15:20:52.633Z,5.84
2022-12-19T15:23:22.821Z,5.89
2022-12-19T15:26:08.183Z,5.93
2022-12-19T15:28:40.568Z,5.83
2022-12-19T15:31:18.246Z,5.98
2022-12-19T15:34:07.147Z,6.02
2022-12-19T15:36:33.851Z,6.01
2022-12-19T15:39:03.720Z,6.04
2022-12-19T15:41:32.304Z,6.05
2022-12-19T15:44:04.240Z,5.88
2022-12-19T15:46:33.662Z,6.05
2022-12-19T15:49:02.177Z,6.06
2022-12-19T15:51:30.096Z,6.06
2022-12-19T15:54:22.170Z,6.05
2022-12-19T15:56:51.162Z,5.94
2022-12-19T15:59:32.801Z,5.94
2022-12-19T16:02:05.279Z,6.01
2022-12-19T16:04:34.200Z,6.02
2022-12-19T16:07:02.284Z,5.99
2022-12-19T16:09:30.120Z,6.00
2022-12-19T16:11:59.685Z,5.93
2022-12-19T16:14:27.589Z,6.00
2022-12-19T16:16:56.289Z,6.05
2022-12-19T16:19:27.156Z,6.08
2022-12-19T16:21:58.055Z,6.07
2022-12-19T16:24:25.995Z,5.97
2022-12-19T16:26:57.046Z,6.12
2022-12-19T16:29:29.085Z,6.13
2022-12-19T16:31:57.168Z,6.11
2022-12-19T16:34:26.224Z,6.06
2022-12-19T16:36:54.744Z,6.08
2022-12-19T16:39:22.540Z,6.10
2022-12-19T16:41:50.276Z,5.98
2022-12-19T16:44:19.903Z,6.04
2022-12-19T16:46:51.408Z,6.10
2022-12-19T16:49:22.862Z,6.23
2022-12-19T16:51:51.398Z,6.12
2022-12-19T16:54:19.940Z,6.23
2022-12-19T16:56:49.825Z,6.23
2022-12-19T16:59:21.750Z,6.24
2022-12-19T17:01:51.135Z,6.27
2022-12-19T17:04:21.529Z,6.28
2022-12-19T17:06:49.888Z,6.33
2022-12-19T17:09:19.079Z,6.29
2022-12-19T17:11:51.069Z,6.33
2022-12-19T17:14:21.820Z,6.21
2022-12-19T17:16:53.914Z,6.22
2022-12-19T17:19:24.322Z,6.21
2022-12-19T17:21:53.004Z,6.34
2022-12-19T17:24:20.786Z,6.33
2022-12-19T17:26:49.017Z,6.33
2022-12-19T17:29:19.810Z,6.34
2022-12-19T17:31:47.570Z,6.39
2022-12-19T17:34:29.201Z,6.39
2022-12-19T17:36:57.953Z,6.45
2022-12-19T17:39:27.561Z,6.45
2022-12-19T17:41:56.556Z,6.30
2022-12-19T17:44:24.352Z,6.29
2022-12-19T17:46:52.570Z,6.49
2022-12-19T17:49:27.637Z,6.23
2022-12-19T17:51:56.229Z,6.39
2022-12-19T17:54:30.394Z,6.41
2022-12-19T17:56:58.244Z,6.42
2022-12-19T17:59:25.983Z,6.52
2022-12-19T18:01:53.931Z,6.52
2022-12-19T18:04:23.228Z,6.55
2022-12-19T18:06:51.602Z,6.50
2022-12-19T18:09:20.735Z,6.54
2022-12-19T18:11:49.749Z,6.30
2022-12-19T18:14:18.280Z,6.35
2022-12-19T18:16:47.140Z,6.58
2022-12-19T18:19:19.544Z,6.58
2022-12-19T18:21:49.177Z,6.38
2022-12-19T18:24:17.766Z,6.52
2022-12-19T18:26:46.235Z,6.50
2022-12-19T18:29:14.320Z,6.49
2022-12-19T18:31:48.376Z,6.50
2022-12-19T18:34:21.557Z,6.53
2022-12-19T18:36:51.244Z,6.56
2022-12-19T18:39:21.777Z,6.61
2022-12-19T18:41:50.120Z,6.60
2022-12-19T18:44:18.176Z,6.62
2022-12-19T18:46:46.833Z,6.53
2022-12-19T18:49:16.735Z,6.53
2022-12-19T18:51:44.889Z,6.69
2022-12-19T18:54:15.579Z,6.62
2022-12-19T18:56:43.539Z,6.65
2022-12-19T18:59:11.271Z,6.31
2022-12-19T19:01:42.907Z,6.76
2022-12-19T19:04:13.253Z,6.75
2022-12-19T19:06:48.598Z,6.75
2022-12-19T19:09:20.645Z,6.81
2022-12-19T19:12:07.130Z,6.90
2022-12-19T19:14:34.908Z,6.94
2022-12-19T19:17:04.389Z,6.93
2022-12-19T19:19:32.219Z,6.70
2022-12-19T19:22:01.644Z,6.99
2022-12-19T19:24:30.980Z,7.02
2022-12-19T19:26:58.702Z,7.11
2022-12-19T19:29:26.445Z,7.14
2022-12-19T19:31:57.808Z,7.18
2022-12-19T19:34:28.933Z,7.19
2022-12-19T19:37:00.102Z,7.12
2022-12-19T19:39:28.695Z,7.18
2022-12-19T19:41:57.823Z,7.19
2022-12-19T19:44:25.771Z,7.17
2022-12-19T19:46:53.906Z,7.15
2022-12-19T19:49:21.750Z,7.13
2022-12-19T19:51:49.541Z,7.12
2022-12-19T19:54:17.296Z,7.05
2022-12-19T19:56:45.100Z,7.05
2022-12-19T19:59:14.197Z,7.17
2022-12-19T20:01:41.991Z,7.18
2022-12-19T20:04:09.916Z,7.24
2022-12-19T20:06:37.757Z,7.24
2022-12-19T20:09:06.069Z,7.20
2022-12-19T20:11:33.844Z,7.26
2022-12-19T20:14:02.211Z,7.26
2022-12-19T20:16:31.667Z,7.24
2022-12-19T20:18:59.649Z,7.19
2022-12-19T20:21:29.185Z,7.16
2022-12-19T20:23:57.552Z,7.13
2022-12-19T20:26:25.328Z,7.17
2022-12-19T20:28:53.153Z,7.03
2022-12-19T20:31:22.435Z,7.19
2022-12-19T20:33:53.763Z,6.99
2022-12-19T20:36:22.235Z,7.00
2022-12-19T20:38:50.410Z,7.01
2022-12-19T20:41:19.116Z,6.93
2022-12-19T20:43:47.960Z,6.91
2022-12-19T20:46:18.089Z,6.93
2022-12-19T20:48:46.540Z,6.95
2022-12-19T20:51:16.844Z,6.83
2022-12-19T20:53:44.941Z,6.83
2022-12-19T20:56:15.031Z,6.78
2022-12-19T20:58:42.862Z,6.84
2022-12-19T21:01:12.936Z,6.95
2022-12-19T21:03:41.295Z,7.00
2022-12-19T21:06:10.548Z,7.01
2022-12-19T21:08:40.195Z,7.09
2022-12-19T21:11:09.519Z,7.15
2022-12-19T21:13:38.624Z,7.24
2022-12-19T21:16:10.006Z,7.38
2022-12-19T21:18:38.701Z,7.37
2022-12-19T21:21:07.523Z,7.28
2022-12-19T21:23:35.865Z,7.20
2022-12-19T21:26:06.522Z,7.22
2022-12-19T21:28:34.738Z,7.21
2022-12-19T21:31:04.936Z,7.47
2022-12-19T21:33:32.814Z,7.43
2022-12-19T21:36:06.791Z,7.44
2022-12-19T21:38:34.755Z,7.34
2022-12-19T21:41:05.817Z,7.39
2022-12-19T21:43:33.847Z,7.52
2022-12-19T21:46:06.627Z,7.48
2022-12-19T21:48:36.506Z,7.51
2022-12-19T21:51:04.390Z,7.59
2022-12-19T21:53:32.262Z,7.49
2022-12-19T21:56:08.897Z,7.52
2022-12-19T21:58:36.717Z,7.60
2022-12-19T22:01:09.341Z,7.45
2022-12-19T22:03:37.563Z,7.57
2022-12-19T22:06:08.539Z,7.58
2022-12-19T22:08:36.973Z,7.51
2022-12-19T22:11:04.837Z,7.12
2022-12-19T22:13:33.944Z,7.57
2022-12-19T22:16:02.556Z,7.66
2022-12-19T22:18:30.364Z,7.64
2022-12-19T22:20:59.667Z,7.81
2022-12-19T22:23:27.606Z,7.74
2022-12-19T22:26:06.359Z,7.63
2022-12-19T22:28:37.518Z,7.53
2022-12-19T22:31:16.182Z,7.33
2022-12-19T22:33:44.198Z,7.32
2022-12-19T22:36:15.384Z,7.38
2022-12-19T22:38:45.119Z,7.36
2022-12-19T22:41:13.830Z,7.39
2022-12-19T22:43:42.989Z,7.28
2022-12-19T22:46:12.142Z,7.20
2022-12-19T22:48:41.070Z,7.25
2022-12-19T22:51:09.921Z,7.36
2022-12-19T22:53:38.927Z,7.37
2022-12-19T22:56:08.765Z,7.29
2022-12-19T22:58:37.553Z,7.18
2022-12-19T23:01:14.670Z,7.32
2022-12-19T23:03:42.946Z,7.36
2022-12-19T23:06:11.027Z,7.10
2022-12-19T23:08:39.200Z,7.29
2022-12-19T23:11:09.640Z,7.40
2022-12-19T23:13:37.397Z,7.65
2022-12-19T23:16:06.836Z,7.62
2022-12-19T23:18:34.789Z,7.79
2022-12-19T23:21:03.671Z,7.95
2022-12-19T23:23:39.367Z,8.14
2022-12-19T23:26:14.995Z,8.08
2022-12-19T23:28:44.197Z,8.28
2022-12-19T23:31:14.407Z,8.21
2022-12-19T23:33:42.337Z,8.13
2022-12-19T23:36:10.715Z,8.16
2022-12-19T23:38:38.461Z,8.04
2022-12-19T23:41:09.249Z,8.02
2022-12-19T23:43:38.429Z,7.96
2022-12-19T23:46:07.643Z,7.98
2022-12-19T23:48:37.320Z,7.88
2022-12-19T23:51:07.414Z,8.22
2022-12-19T23:53:36.149Z,8.28
2022-12-19T23:56:04.780Z,8.05
2022-12-19T23:58:32.605Z,8.01
